createdAt,value
2022-08-20T00:00:00.636Z,2.00
2022-08-20T00:02:29.108Z,2.40
2022-08-20T00:04:57.533Z,2.08
2022-08-20T00:07:26.016Z,2.20
2022-08-20T00:09:56.030Z,2.20
2022-08-20T00:12:24.605Z,2.67
2022-08-20T00:14:53.124Z,2.33
2022-08-20T00:17:21.526Z,2.63
2022-08-20T00:19:50.070Z,2.83
2022-08-20T00:22:18.641Z,2.78
2022-08-20T00:24:47.493Z,2.85
2022-08-20T00:27:17.409Z,3.22
2022-08-20T00:29:45.937Z,3.00
2022-08-20T00:32:14.497Z,2.58
2022-08-20T00:34:43.246Z,2.20
2022-08-20T00:37:11.825Z,2.10
2022-08-20T00:39:40.463Z,1.50
2022-08-20T00:42:09.490Z,1.52
2022-08-20T00:44:46.572Z,2.45
2022-08-20T00:47:15.124Z,1.90
2022-08-20T00:49:45.646Z,2.10
2022-08-20T00:52:19.221Z,1.70
2022-08-20T00:57:26.520Z,1.90
2022-08-20T00:59:58.347Z,1.95
2022-08-20T01:02:30.337Z,2.00
2022-08-20T01:04:59.408Z,2.08
2022-08-20T01:07:34.881Z,2.35
2022-08-20T01:10:08.048Z,1.88
2022-08-20T01:12:36.813Z,1.92
2022-08-20T01:15:12.091Z,2.33
2022-08-20T01:17:46.389Z,2.13
2022-08-20T01:20:18.584Z,2.42
2022-08-20T01:23:12.320Z,2.53
2022-08-20T01:25:47.078Z,2.50
2022-08-20T01:28:17.804Z,2.78
2022-08-20T01:30:46.805Z,2.78
2022-08-20T01:33:15.661Z,2.58
2022-08-20T01:35:45.348Z,2.97
2022-08-20T01:38:15.061Z,2.50
2022-08-20T01:40:59.798Z,3.00
2022-08-20T01:43:28.594Z,2.60
2022-08-20T01:46:01.799Z,2.25
2022-08-20T01:48:32.890Z,2.58
2022-08-20T01:51:07.112Z,2.80
2022-08-20T01:53:38.841Z,2.65
2022-08-20T01:56:12.112Z,2.53
2022-08-20T01:58:43.552Z,2.92
2022-08-20T02:01:21.647Z,2.65
2022-08-20T02:03:51.291Z,3.20
2022-08-20T02:06:20.136Z,3.15
2022-08-20T02:08:48.694Z,3.10
2022-08-20T02:11:18.633Z,2.95
2022-08-20T02:13:49.758Z,3.08
2022-08-20T02:16:17.898Z,3.00
2022-08-20T02:18:46.472Z,2.45
2022-08-20T02:21:14.956Z,2.95
2022-08-20T02:23:43.771Z,2.78
2022-08-20T02:26:12.275Z,3.22
2022-08-20T02:28:42.466Z,3.33
2022-08-20T02:31:10.986Z,3.13
2022-08-20T02:33:39.466Z,2.83
2022-08-20T02:36:09.165Z,2.60
2022-08-20T02:38:39.177Z,2.80
2022-08-20T02:41:08.375Z,2.90
2022-08-20T02:43:37.581Z,2.60
2022-08-20T02:46:09.116Z,2.25
2022-08-20T02:48:37.610Z,2.42
2022-08-20T02:51:08.009Z,3.20
2022-08-20T02:53:39.582Z,2.80
2022-08-20T02:56:09.449Z,2.80
2022-08-20T02:58:38.608Z,2.30
2022-08-20T03:01:12.711Z,1.80
2022-08-20T03:03:41.801Z,1.77
2022-08-20T03:06:12.593Z,1.90
2022-08-20T03:08:41.111Z,2.10
2022-08-20T03:11:09.628Z,1.75
2022-08-20T03:13:38.820Z,1.95
2022-08-20T03:16:09.418Z,2.10
2022-08-20T03:18:43.454Z,1.90
2022-08-20T03:21:14.855Z,1.50
2022-08-20T03:23:43.800Z,1.55
2022-08-20T03:26:14.330Z,1.70
2022-08-20T03:28:43.541Z,1.80
2022-08-20T03:31:15.491Z,1.70
2022-08-20T03:33:53.447Z,1.40
2022-08-20T03:36:28.519Z,1.40
2022-08-20T03:38:58.309Z,1.70
2022-08-20T03:41:27.392Z,1.70
2022-08-20T03:43:56.415Z,1.75
2022-08-20T03:46:27.085Z,1.65
2022-08-20T03:48:59.917Z,1.90
2022-08-20T03:53:58.153Z,1.70
2022-08-20T03:56:26.953Z,2.03
2022-08-20T03:58:58.208Z,1.73
2022-08-20T04:01:45.416Z,1.92
2022-08-20T04:04:15.042Z,1.90
2022-08-20T04:06:44.424Z,2.72
2022-08-20T04:09:13.228Z,2.72
2022-08-20T04:11:41.832Z,2.47
2022-08-20T04:14:11.602Z,2.50
2022-08-20T04:16:48.851Z,2.65
2022-08-20T04:19:18.337Z,2.35
2022-08-20T04:21:49.057Z,2.80
2022-08-20T04:24:22.631Z,2.55
2022-08-20T04:27:00.649Z,2.22
2022-08-20T04:29:32.118Z,2.08
2022-08-20T04:32:05.878Z,2.35
2022-08-20T04:34:35.592Z,2.40
2022-08-20T04:37:04.745Z,2.40
2022-08-20T04:39:33.200Z,2.60
2022-08-20T04:42:00.763Z,2.70
2022-08-20T04:44:29.289Z,2.50
2022-08-20T04:46:58.092Z,2.83
2022-08-20T04:49:28.125Z,2.88
2022-08-20T04:51:56.861Z,2.80
2022-08-20T04:54:25.401Z,2.38
2022-08-20T04:56:54.244Z,2.70
2022-08-20T04:59:22.768Z,3.15
2022-08-20T05:01:52.024Z,2.60
2022-08-20T05:04:20.554Z,2.80
2022-08-20T05:06:51.404Z,2.90
2022-08-20T05:09:19.901Z,2.90
2022-08-20T05:11:48.764Z,3.05
2022-08-20T05:14:17.225Z,2.63
2022-08-20T05:16:45.685Z,3.28
2022-08-20T05:19:14.897Z,2.88
2022-08-20T05:21:43.353Z,3.50
2022-08-20T05:24:13.361Z,3.80
2022-08-20T05:26:41.982Z,3.20
2022-08-20T05:29:10.425Z,3.60
2022-08-20T05:31:39.589Z,3.20
2022-08-20T05:34:13.461Z,3.42
2022-08-20T05:36:45.017Z,3.55
2022-08-20T05:39:15.690Z,3.25
2022-08-20T05:41:44.196Z,3.30
2022-08-20T05:44:15.233Z,3.50
2022-08-20T05:46:44.934Z,3.00
2022-08-20T05:49:16.378Z,2.90
2022-08-20T05:51:45.289Z,2.90
2022-08-20T05:54:16.284Z,2.88
2022-08-20T05:56:45.775Z,2.85
2022-08-20T05:59:14.262Z,3.13
2022-08-20T06:01:44.236Z,3.38
2022-08-20T06:04:28.234Z,3.25
2022-08-20T06:06:59.833Z,3.17
2022-08-20T06:09:31.934Z,3.30
2022-08-20T06:12:02.813Z,3.30
2022-08-20T06:14:32.161Z,3.20
2022-08-20T06:17:08.182Z,3.20
2022-08-20T06:19:38.417Z,3.58
2022-08-20T06:22:17.557Z,3.70
2022-08-20T06:24:51.505Z,3.58
2022-08-20T06:27:20.497Z,3.55
2022-08-20T06:29:49.375Z,3.78
2022-08-20T06:32:19.974Z,4.68
2022-08-20T06:35:02.290Z,4.32
2022-08-20T06:37:32.433Z,3.83
2022-08-20T06:40:06.932Z,3.38
2022-08-20T06:42:36.201Z,3.80
2022-08-20T06:45:06.157Z,3.78
2022-08-20T06:47:35.710Z,3.28
2022-08-20T06:50:04.197Z,3.53
2022-08-20T06:52:52.315Z,3.28
2022-08-20T06:55:24.114Z,3.63
2022-08-20T06:57:59.721Z,3.40
2022-08-20T07:00:29.350Z,3.60
2022-08-20T07:02:58.215Z,3.08
2022-08-20T07:05:26.866Z,3.55
2022-08-20T07:07:55.939Z,3.83
2022-08-20T07:10:27.331Z,3.67
2022-08-20T07:12:57.622Z,2.95
2022-08-20T07:15:27.648Z,3.35
2022-08-20T07:18:01.405Z,3.22
2022-08-20T07:20:32.085Z,3.22
2022-08-20T07:23:01.248Z,2.75
2022-08-20T07:25:33.765Z,3.28
2022-08-20T07:28:04.445Z,4.38
2022-08-20T07:30:56.679Z,3.97
2022-08-20T07:33:28.579Z,4.15
2022-08-20T07:35:58.589Z,4.45
2022-08-20T07:38:30.786Z,3.72
2022-08-20T07:41:03.560Z,3.80
2022-08-20T07:43:35.239Z,3.63
2022-08-20T07:46:09.322Z,4.90
2022-08-20T07:48:40.648Z,3.92
2022-08-20T07:51:12.487Z,4.75
2022-08-20T07:53:42.158Z,4.50
2022-08-20T07:56:15.720Z,4.88
2022-08-20T07:58:50.323Z,4.68
2022-08-20T08:01:20.299Z,5.88
2022-08-20T08:03:50.722Z,6.13
2022-08-20T08:06:29.569Z,5.65
2022-08-20T08:09:01.262Z,5.53
2022-08-20T08:11:32.726Z,6.85
2022-08-20T08:14:01.733Z,5.93
2022-08-20T08:16:31.288Z,6.88
2022-08-20T08:19:02.305Z,6.97
2022-08-20T08:21:32.605Z,7.15
2022-08-20T08:24:01.626Z,7.63
2022-08-20T08:26:31.589Z,7.20
2022-08-20T08:29:00.252Z,7.78
2022-08-20T08:31:29.093Z,8.55
2022-08-20T08:33:57.824Z,8.40
2022-08-20T08:36:27.005Z,9.35
2022-08-20T08:38:56.769Z,9.88
2022-08-20T08:41:32.238Z,9.75
2022-08-20T08:44:08.428Z,9.88
2022-08-20T08:46:42.009Z,10.45
2022-08-20T08:51:46.538Z,10.88
2022-08-20T08:54:18.039Z,10.35
2022-08-20T08:56:49.957Z,11.70
2022-08-20T08:59:21.909Z,12.07
2022-08-20T09:01:57.154Z,12.35
2022-08-20T09:04:31.978Z,13.48
2022-08-20T09:07:03.196Z,13.00
2022-08-20T09:09:34.366Z,12.98
2022-08-20T09:12:07.277Z,12.40
2022-08-20T09:14:37.409Z,12.77
2022-08-20T09:17:06.854Z,14.15
2022-08-20T09:19:35.424Z,12.63
2022-08-20T09:22:09.286Z,13.65
2022-08-20T09:24:38.136Z,13.43
2022-08-20T09:27:07.092Z,13.00
2022-08-20T09:29:37.482Z,12.68
2022-08-20T09:32:08.061Z,11.63
2022-08-20T09:34:39.661Z,14.32
2022-08-20T09:37:08.673Z,16.58
2022-08-20T09:39:37.931Z,13.65
2022-08-20T09:42:12.418Z,13.82
2022-08-20T09:44:43.147Z,12.55
2022-08-20T09:47:12.431Z,12.90
2022-08-20T09:49:42.023Z,13.13
2022-08-20T09:52:13.505Z,12.00
2022-08-20T09:54:46.608Z,11.15
2022-08-20T09:57:16.949Z,11.70
2022-08-20T09:59:58.017Z,11.15
2022-08-20T10:02:27.749Z,13.32
2022-08-20T10:04:56.645Z,12.20
2022-08-20T10:07:26.506Z,12.02
2022-08-20T10:09:55.709Z,13.00
2022-08-20T10:12:25.117Z,13.40
2022-08-20T10:14:55.899Z,11.57
2022-08-20T10:17:30.346Z,13.07
2022-08-20T10:19:58.994Z,11.80
2022-08-20T10:22:27.674Z,13.68
2022-08-20T10:24:56.476Z,13.32
2022-08-20T10:27:25.261Z,14.55
2022-08-20T10:29:55.345Z,15.75
2022-08-20T10:32:24.006Z,16.13
2022-08-20T10:34:52.814Z,18.13
2022-08-20T10:37:23.940Z,18.30
2022-08-20T10:39:53.194Z,17.80
2022-08-20T10:42:22.301Z,17.02
2022-08-20T10:44:51.352Z,16.98
2022-08-20T10:47:25.120Z,16.80
2022-08-20T10:49:56.590Z,17.25
2022-08-20T10:52:33.258Z,16.50
2022-08-20T10:55:04.446Z,16.95
2022-08-20T10:57:47.333Z,16.77
2022-08-20T11:00:18.934Z,17.50
2022-08-20T11:06:48.642Z,16.40
2022-08-20T11:09:18.248Z,16.08
2022-08-20T11:12:00.504Z,16.77
2022-08-20T11:14:30.557Z,15.90
2022-08-20T11:20:55.899Z,17.27
2022-08-20T11:23:28.655Z,18.30
2022-08-20T11:26:00.263Z,16.95
2022-08-20T11:28:38.277Z,17.98
2022-08-20T11:32:16.036Z,18.15
2022-08-20T11:34:45.135Z,17.60
2022-08-20T11:37:15.575Z,18.42
2022-08-20T11:39:46.597Z,17.25
2022-08-20T11:42:16.094Z,18.05
2022-08-20T11:44:45.692Z,16.50
2022-08-20T11:47:36.403Z,17.55
2022-08-20T11:50:09.077Z,17.65
2022-08-20T11:52:38.595Z,17.80
2022-08-20T11:57:59.877Z,16.45
2022-08-20T12:03:02.671Z,17.10
2022-08-20T12:05:31.455Z,16.35
2022-08-20T12:08:03.115Z,17.67
2022-08-20T12:10:33.179Z,17.75
2022-08-20T12:13:04.669Z,19.27
2022-08-20T12:15:36.925Z,17.40
2022-08-20T12:18:13.823Z,18.00
2022-08-20T12:20:42.788Z,17.63
2022-08-20T12:23:11.533Z,17.35
2022-08-20T12:25:43.476Z,17.88
2022-08-20T12:28:17.024Z,17.17
2022-08-20T12:30:51.991Z,18.13
2022-08-20T12:33:20.962Z,14.30
2022-08-20T12:35:49.619Z,16.42
2022-08-20T12:38:18.429Z,14.95
2022-08-20T12:40:47.128Z,15.43
2022-08-20T12:43:18.908Z,15.52
2022-08-20T12:45:50.657Z,15.57
2022-08-20T12:48:21.109Z,17.60
2022-08-20T12:50:50.598Z,15.98
2022-08-20T12:53:19.174Z,15.80
2022-08-20T12:55:47.945Z,14.45
2022-08-20T12:58:19.271Z,15.45
2022-08-20T13:00:51.544Z,15.63
2022-08-20T13:03:21.582Z,15.82
2022-08-20T13:05:50.828Z,15.23
2022-08-20T13:08:19.707Z,14.55
2022-08-20T13:10:49.312Z,15.98
2022-08-20T13:13:21.279Z,15.50
2022-08-20T13:15:51.605Z,17.02
2022-08-20T13:18:20.632Z,15.68
2022-08-20T13:23:59.360Z,15.65
2022-08-20T13:26:28.170Z,16.33
2022-08-20T13:28:58.169Z,16.42
2022-08-20T13:31:26.933Z,16.90
2022-08-20T13:33:55.567Z,15.57
2022-08-20T13:36:24.173Z,15.80
2022-08-20T13:38:53.296Z,15.40
2022-08-20T13:41:21.947Z,16.10
2022-08-20T13:43:50.850Z,15.38
2022-08-20T13:46:21.192Z,15.23
2022-08-20T13:48:49.973Z,14.43
2022-08-20T13:51:19.052Z,15.30
2022-08-20T13:54:07.168Z,15.75
2022-08-20T13:57:12.108Z,15.57
2022-08-20T13:59:43.793Z,13.77
2022-08-20T14:02:15.668Z,14.23
2022-08-20T14:04:44.913Z,12.52
2022-08-20T14:07:15.869Z,13.25
2022-08-20T14:09:47.218Z,13.32
2022-08-20T14:12:17.151Z,13.52
2022-08-20T14:14:46.348Z,12.82
2022-08-20T14:17:39.216Z,13.45
2022-08-20T14:20:12.001Z,13.75
2022-08-20T14:22:42.152Z,13.50
2022-08-20T14:25:14.510Z,12.50
2022-08-20T14:27:45.687Z,11.88
2022-08-20T14:30:19.339Z,13.27
2022-08-20T14:32:50.155Z,12.25
2022-08-20T14:35:19.517Z,13.63
2022-08-20T14:37:50.337Z,14.05
2022-08-20T14:40:21.544Z,13.70
2022-08-20T14:42:51.653Z,13.32
2022-08-20T14:45:22.751Z,13.57
2022-08-20T14:47:55.489Z,12.95
2022-08-20T14:50:27.903Z,12.88
2022-08-20T14:53:00.406Z,13.57
2022-08-20T14:55:33.534Z,13.02
2022-08-20T14:58:03.206Z,12.80
2022-08-20T15:00:34.278Z,11.88
2022-08-20T15:03:04.669Z,14.60
2022-08-20T15:05:33.469Z,13.02
2022-08-20T15:08:02.481Z,12.23
2022-08-20T15:10:34.449Z,11.73
2022-08-20T15:13:03.249Z,11.35
2022-08-20T15:15:31.981Z,11.07
2022-08-20T15:18:01.681Z,13.23
2022-08-20T15:20:34.932Z,15.65
2022-08-20T15:23:15.619Z,13.48
2022-08-20T15:25:50.044Z,14.43
2022-08-20T15:28:26.364Z,13.10
2022-08-20T15:38:53.029Z,8.55
2022-08-20T15:41:21.605Z,9.25
2022-08-20T15:43:50.454Z,9.52
2022-08-20T15:48:55.365Z,8.57
2022-08-20T15:51:30.505Z,7.65
2022-08-20T15:54:03.424Z,7.85
2022-08-20T15:56:51.837Z,6.18
2022-08-20T15:59:59.044Z,4.20
2022-08-20T16:02:54.147Z,4.70
2022-08-20T16:05:29.251Z,4.05
2022-08-20T16:08:09.290Z,4.50
2022-08-20T16:10:49.580Z,4.63
2022-08-20T16:13:31.024Z,3.50
2022-08-20T16:16:04.051Z,3.33
2022-08-20T16:18:36.290Z,4.25
2022-08-20T16:21:10.928Z,4.38
2022-08-20T16:23:42.681Z,5.90
2022-08-20T16:26:28.043Z,5.55
2022-08-20T16:29:09.981Z,7.78
2022-08-20T16:31:48.767Z,6.97
2022-08-20T16:34:34.360Z,8.05
2022-08-20T16:37:12.894Z,8.70
2022-08-20T16:39:48.645Z,7.82
2022-08-20T16:42:24.951Z,6.63
2022-08-20T16:44:56.291Z,6.47
2022-08-20T16:47:30.118Z,5.40
2022-08-20T16:50:03.804Z,3.67
2022-08-20T16:52:32.327Z,4.18
2022-08-20T16:55:01.195Z,3.90
2022-08-20T16:57:31.537Z,3.85
2022-08-20T17:00:07.944Z,4.07
2022-08-20T17:02:36.596Z,3.22
2022-08-20T17:05:06.693Z,3.10
2022-08-20T17:15:57.121Z,4.22
2022-08-20T17:25:06.261Z,3.03
2022-08-20T17:27:48.646Z,3.03
2022-08-20T17:33:06.800Z,3.03
2022-08-20T17:35:41.953Z,2.88
2022-08-20T17:38:30.696Z,3.20
2022-08-20T17:41:01.966Z,2.95
2022-08-20T17:56:40.552Z,2.63
2022-08-20T18:22:32.743Z,2.13
2022-08-20T18:43:47.933Z,2.78
2022-08-20T18:49:00.600Z,2.75
2022-08-20T18:51:36.550Z,3.72
2022-08-20T19:02:58.296Z,3.90
2022-08-20T19:05:33.257Z,3.97
2022-08-20T19:16:07.487Z,4.60
2022-08-20T19:18:46.234Z,4.75
2022-08-20T19:21:18.352Z,4.18
2022-08-20T19:23:56.216Z,4.50
2022-08-20T19:26:38.310Z,4.55
2022-08-20T19:29:56.949Z,4.82
2022-08-20T19:33:06.844Z,5.32
2022-08-20T19:42:42.548Z,6.50
2022-08-20T19:45:35.786Z,5.28
2022-08-20T19:52:49.964Z,6.28
2022-08-20T20:00:05.162Z,4.53
2022-08-20T20:02:50.542Z,4.97
2022-08-20T20:05:51.349Z,4.70
2022-08-20T20:13:11.203Z,4.50
2022-08-20T20:15:48.456Z,4.43
2022-08-20T20:18:32.598Z,3.10
2022-08-20T20:21:17.289Z,3.33
2022-08-20T20:23:55.082Z,3.45
2022-08-20T20:26:26.285Z,3.25
2022-08-20T20:29:04.687Z,3.80
2022-08-20T20:31:44.038Z,4.70
2022-08-20T20:34:19.913Z,5.15
2022-08-20T20:36:49.948Z,10.55
2022-08-20T20:39:30.644Z,7.25
2022-08-20T20:42:02.910Z,8.52
2022-08-20T20:44:37.576Z,6.13
2022-08-20T20:47:18.600Z,5.93
2022-08-20T20:49:55.324Z,5.47
2022-08-20T20:52:35.443Z,5.32
2022-08-20T20:55:29.691Z,5.65
2022-08-20T20:58:39.730Z,5.38
2022-08-20T21:01:27.226Z,4.40
2022-08-20T21:08:38.271Z,3.80
2022-08-20T21:11:13.901Z,3.10
2022-08-20T21:29:47.932Z,3.20
2022-08-20T21:32:18.209Z,3.75
2022-08-20T21:34:47.296Z,3.40
2022-08-20T21:37:16.871Z,3.97
2022-08-20T21:39:46.179Z,3.17
2022-08-20T21:42:28.723Z,4.18
2022-08-20T21:45:00.259Z,4.28
2022-08-20T21:47:29.033Z,4.40
2022-08-20T21:49:57.953Z,4.32
2022-08-20T21:52:26.896Z,3.90
2022-08-20T21:54:55.834Z,3.90
2022-08-20T21:57:31.394Z,4.63
2022-08-20T22:00:16.669Z,4.70
2022-08-20T22:02:45.750Z,4.28
2022-08-20T22:05:16.686Z,4.63
2022-08-20T22:07:55.274Z,8.95
2022-08-20T22:10:23.955Z,6.70
2022-08-20T22:12:54.894Z,6.68
2022-08-20T22:15:27.445Z,6.53
2022-08-20T22:17:59.238Z,5.82
2022-08-20T22:20:31.888Z,6.00
2022-08-20T22:23:05.313Z,5.32
2022-08-20T22:25:35.270Z,4.85
2022-08-20T22:28:07.001Z,5.43
2022-08-20T22:30:42.133Z,5.65
2022-08-20T22:33:13.424Z,4.80
2022-08-20T22:35:47.324Z,5.20
2022-08-20T22:38:20.362Z,4.82
2022-08-20T22:40:58.131Z,5.57
2022-08-20T22:43:27.019Z,4.65
2022-08-20T22:46:02.919Z,5.32
2022-08-20T22:48:39.815Z,5.75
2022-08-20T22:51:08.568Z,5.13
2022-08-20T22:53:45.586Z,5.40
2022-08-20T22:56:21.639Z,5.15
2022-08-20T22:58:54.494Z,4.80
2022-08-20T23:01:27.286Z,6.15
2022-08-20T23:03:57.274Z,7.55
2022-08-20T23:06:31.429Z,8.77
2022-08-20T23:09:00.781Z,6.32
2022-08-20T23:11:29.953Z,6.20
2022-08-20T23:13:58.539Z,5.47
2022-08-20T23:16:30.163Z,5.60
2022-08-20T23:18:59.096Z,5.63
2022-08-20T23:21:28.075Z,5.40
2022-08-20T23:23:59.720Z,5.85
2022-08-20T23:26:29.691Z,5.70
2022-08-20T23:28:58.645Z,5.68
2022-08-20T23:31:27.776Z,5.75
2022-08-20T23:33:57.831Z,6.18
2022-08-20T23:36:27.089Z,5.75
2022-08-20T23:38:57.075Z,5.82
2022-08-20T23:41:26.081Z,6.30
2022-08-20T23:43:54.805Z,5.22
2022-08-20T23:46:27.541Z,6.30
2022-08-20T23:49:02.087Z,6.07
2022-08-20T23:51:33.739Z,7.03
2022-08-20T23:54:07.877Z,6.85
2022-08-20T23:56:36.618Z,7.15
2022-08-20T23:59:06.037Z,7.45
